Time;durP1;ratioP1;P1;durP2;ratioP2;P2;SDS_P1;SDS_P2;PMS_P1;PMS_P2;Temp;Humidity;BMP_temperature;BMP_pressure;BME280_temperature;BME280_humidity;BME280_pressure;Samples;Min_cycle;Max_cycle;Signal;HPM_P1;HPM_P2
2022/12/28 00:01:58;;;;;;;17.65;6.38;;;5.60;99.90;;;;;;5045867;28;21205;-57
2022/12/28 00:04:26;;;;;;;11.68;5.57;;;5.70;99.90;;;;;;5047561;28;20127;-57
2022/12/28 00:06:53;;;;;;;20.27;5.70;;;5.70;99.90;;;;;;5051783;28;20107;-58
2022/12/28 00:09:20;;;;;;;14.88;5.75;;;5.70;99.90;;;;;;5047916;28;20106;-58
2022/12/28 00:11:46;;;;;;;17.02;5.88;;;5.60;99.90;;;;;;5047441;28;20118;-59
2022/12/28 00:14:13;;;;;;;15.35;5.63;;;5.60;99.90;;;;;;5047235;28;20126;-59
2022/12/28 00:16:40;;;;;;;20.25;5.15;;;5.60;99.90;;;;;;5048504;28;20052;-58
2022/12/28 00:19:10;;;;;;;15.98;5.25;;;5.60;99.90;;;;;;5048106;28;20133;-62
2022/12/28 00:21:38;;;;;;;15.80;6.20;;;5.60;99.90;;;;;;5046877;28;20048;-59
2022/12/28 00:24:05;;;;;;;16.73;6.38;;;5.60;99.90;;;;;;5047415;28;20084;-61
2022/12/28 00:26:33;;;;;;;10.43;5.05;;;5.70;99.90;;;;;;5049141;28;20076;-54
2022/12/28 00:29:00;;;;;;;15.85;5.63;;;5.60;99.90;;;;;;5045021;28;20168;-50
2022/12/28 00:31:26;;;;;;;17.25;5.80;;;5.60;99.90;;;;;;5048900;28;20154;-57
2022/12/28 00:33:53;;;;;;;17.45;5.70;;;5.60;99.90;;;;;;5047656;28;20052;-55
2022/12/28 00:36:20;;;;;;;19.00;5.90;;;5.60;99.90;;;;;;5048352;28;20518;-55
2022/12/28 00:38:48;;;;;;;11.43;5.60;;;5.60;99.90;;;;;;5050506;28;20092;-55
2022/12/28 00:41:16;;;;;;;17.35;5.88;;;5.60;99.90;;;;;;5046709;28;20470;-58
2022/12/28 00:43:43;;;;;;;17.27;5.88;;;5.70;99.90;;;;;;5045205;28;20139;-49
2022/12/28 00:46:10;;;;;;;18.10;6.00;;;5.70;99.90;;;;;;5050664;28;20041;-58
2022/12/28 00:48:37;;;;;;;12.88;5.82;;;5.60;99.90;;;;;;5047246;28;20076;-56
2022/12/28 00:51:08;;;;;;;15.98;6.30;;;5.60;99.90;;;;;;5052405;28;20134;-55
2022/12/28 00:53:35;;;;;;;20.17;6.63;;;5.60;99.90;;;;;;5048288;28;20045;-55
2022/12/28 00:56:07;;;;;;;16.13;5.03;;;5.60;99.90;;;;;;5051313;28;20416;-60
2022/12/28 00:58:34;;;;;;;19.20;5.88;;;5.60;99.90;;;;;;5050606;28;20044;-56
2022/12/28 01:01:01;;;;;;;18.42;5.57;;;5.60;99.90;;;;;;5048374;28;20048;-60
2022/12/28 01:03:28;;;;;;;12.07;5.22;;;5.50;99.90;;;;;;5045939;28;20045;-61
2022/12/28 01:05:55;;;;;;;13.63;5.82;;;5.60;99.90;;;;;;5067177;28;20449;-61
2022/12/28 01:08:21;;;;;;;12.15;4.95;;;5.60;99.90;;;;;;5052512;28;20140;-64
2022/12/28 01:10:48;;;;;;;20.02;6.03;;;5.60;99.90;;;;;;5050614;28;20052;-61
2022/12/28 01:13:16;;;;;;;11.77;5.78;;;5.60;99.90;;;;;;5053679;28;20061;-60
2022/12/28 01:15:43;;;;;;;14.75;5.00;;;5.60;99.90;;;;;;5053362;28;20076;-59
2022/12/28 01:18:10;;;;;;;13.60;5.47;;;5.60;99.90;;;;;;5051759;28;20085;-60
2022/12/28 01:20:39;;;;;;;13.75;5.15;;;5.60;99.90;;;;;;5050659;28;20137;-57
2022/12/28 01:23:05;;;;;;;15.27;5.50;;;5.70;99.90;;;;;;5043074;28;20072;-59
2022/12/28 01:25:32;;;;;;;11.80;5.03;;;5.60;99.90;;;;;;5052597;28;20508;-61
2022/12/28 01:27:59;;;;;;;12.32;5.88;;;5.60;99.90;;;;;;5051384;28;20061;-60
2022/12/28 01:30:29;;;;;;;17.88;5.80;;;5.70;99.90;;;;;;5050646;28;20132;-64
2022/12/28 01:32:58;;;;;;;15.07;6.13;;;5.70;99.90;;;;;;5052007;28;20254;-60
2022/12/28 01:35:25;;;;;;;12.80;5.72;;;5.70;99.90;;;;;;5049630;28;20092;-57
2022/12/28 01:37:52;;;;;;;16.27;5.72;;;5.70;99.90;;;;;;5053452;28;20061;-58
2022/12/28 01:40:18;;;;;;;19.08;6.63;;;5.70;99.90;;;;;;5049395;28;20138;-60
2022/12/28 01:42:45;;;;;;;16.23;5.85;;;5.70;99.90;;;;;;5052984;28;20072;-58
2022/12/28 01:45:17;;;;;;;13.35;6.40;;;5.70;99.90;;;;;;5054710;28;20460;-59
2022/12/28 01:47:45;;;;;;;15.05;6.47;;;5.70;99.90;;;;;;5052508;28;20063;-57
2022/12/28 01:50:13;;;;;;;16.80;6.07;;;5.70;99.90;;;;;;5051359;28;20132;-56
2022/12/28 01:52:41;;;;;;;11.05;5.60;;;5.80;99.90;;;;;;5052665;28;20485;-60
2022/12/28 01:55:09;;;;;;;17.33;6.68;;;5.80;99.90;;;;;;5051641;28;20111;-60
2022/12/28 01:57:39;;;;;;;17.77;6.50;;;5.80;99.90;;;;;;5048475;28;20087;-58
2022/12/28 02:00:08;;;;;;;14.45;6.32;;;5.80;99.90;;;;;;5045544;28;20057;-57
2022/12/28 02:02:35;;;;;;;15.25;6.20;;;5.80;99.90;;;;;;5044037;28;20167;-59
2022/12/28 02:05:03;;;;;;;17.23;5.93;;;5.80;99.90;;;;;;5049182;28;20128;-60
2022/12/28 02:07:35;;;;;;;14.80;5.90;;;5.80;99.90;;;;;;5045611;28;20504;-60
2022/12/28 02:10:02;;;;;;;11.60;6.20;;;5.80;99.90;;;;;;5051607;28;20089;-62
2022/12/28 02:12:29;;;;;;;10.07;5.10;;;5.80;99.90;;;;;;5048970;28;20069;-61
2022/12/28 02:14:56;;;;;;;20.90;7.20;;;5.80;99.90;;;;;;5049886;28;20044;-55
2022/12/28 02:17:27;;;;;;;14.85;6.43;;;5.80;99.90;;;;;;5050065;28;20484;-60
2022/12/28 02:19:53;;;;;;;14.95;6.78;;;5.90;99.90;;;;;;5046393;28;20562;-59
2022/12/28 02:22:54;;;;;;;12.13;6.78;;;5.90;99.90;;;;;;5048124;28;20137;-59
2022/12/28 02:26:03;;;;;;;19.58;7.18;;;5.90;99.90;;;;;;5044565;28;20056;-52
2022/12/28 02:29:12;;;;;;;14.00;7.13;;;5.90;99.90;;;;;;5049327;28;20091;-58
2022/12/28 02:31:41;;;;;;;16.77;6.82;;;5.90;99.90;;;;;;5007024;28;20069;-57
2022/12/28 02:34:13;;;;;;;14.82;6.80;;;5.90;99.90;;;;;;5036153;28;20488;-56
2022/12/28 02:36:42;;;;;;;19.10;7.50;;;5.90;99.90;;;;;;5049371;28;20052;-58
2022/12/28 02:39:11;;;;;;;13.80;7.13;;;5.90;99.90;;;;;;5048061;28;20091;-57
2022/12/28 02:41:38;;;;;;;17.92;8.57;;;5.90;99.90;;;;;;5048632;28;20448;-57
2022/12/28 02:44:06;;;;;;;12.90;7.68;;;5.90;99.90;;;;;;5050917;28;20189;-49
2022/12/28 02:52:08;;;;;;;19.80;7.13;;;6.00;99.90;;;;;;5049910;28;20397;-58
2022/12/28 02:57:45;;;;;;;14.87;7.13;;;6.00;99.90;;;;;;5047464;28;20091;-58
2022/12/28 03:00:14;;;;;;;9.27;5.90;;;6.00;99.90;;;;;;5042847;28;20049;-59
2022/12/28 03:02:56;;;;;;;11.60;7.40;;;6.00;99.90;;;;;;5044790;28;20132;-62
2022/12/28 03:08:18;;;;;;;18.25;7.90;;;6.10;99.90;;;;;;5036600;28;20107;-61
2022/12/28 03:10:47;;;;;;;17.17;7.85;;;6.10;99.90;;;;;;5049470;28;20059;-54
2022/12/28 03:16:06;;;;;;;14.20;6.53;;;6.10;99.90;;;;;;5053225;28;20049;-64
2022/12/28 03:32:17;;;;;;;12.60;7.53;;;6.30;99.90;;;;;;5053394;28;20053;-56
2022/12/28 03:34:43;;;;;;;11.18;7.15;;;6.40;99.90;;;;;;5053677;28;20091;-56
2022/12/28 03:37:13;;;;;;;16.58;7.82;;;6.40;99.90;;;;;;5050240;28;20098;-46
2022/12/28 03:39:42;;;;;;;15.68;7.63;;;6.40;99.90;;;;;;5054034;28;20136;-59
2022/12/28 03:45:02;;;;;;;13.82;7.72;;;6.50;99.90;;;;;;5052472;28;20056;-55
2022/12/28 03:47:30;;;;;;;13.38;7.53;;;6.50;99.90;;;;;;5052487;28;20048;-56
2022/12/28 03:49:57;;;;;;;9.88;7.20;;;6.50;99.90;;;;;;5053415;28;20076;-57
2022/12/28 03:52:24;;;;;;;10.27;7.07;;;6.50;99.90;;;;;;5050424;28;20596;-53
2022/12/28 03:54:51;;;;;;;14.93;7.43;;;6.60;99.90;;;;;;5045320;28;20050;-54
2022/12/28 03:57:18;;;;;;;12.05;7.38;;;6.60;99.90;;;;;;5051666;28;20107;-57
2022/12/28 03:59:45;;;;;;;9.98;7.00;;;6.60;99.90;;;;;;5049821;28;20084;-58
2022/12/28 04:02:12;;;;;;;10.15;6.93;;;6.60;99.90;;;;;;5050296;28;20094;-56
2022/12/28 04:04:40;;;;;;;9.70;5.95;;;6.60;99.90;;;;;;5054343;28;20106;-57
2022/12/28 04:07:07;;;;;;;12.68;6.55;;;6.60;99.90;;;;;;5049983;28;21738;-59
2022/12/28 04:09:36;;;;;;;8.32;5.65;;;6.60;99.90;;;;;;5050382;28;20088;-57
2022/12/28 04:12:03;;;;;;;11.90;6.95;;;6.70;99.90;;;;;;5051103;28;20444;-55
2022/12/28 04:14:30;;;;;;;11.27;6.57;;;6.70;99.90;;;;;;5054728;28;20107;-62
2022/12/28 04:16:57;;;;;;;9.48;6.63;;;6.70;99.90;;;;;;5052826;28;20132;-60
2022/12/28 04:19:24;;;;;;;11.88;6.88;;;6.70;99.90;;;;;;5054079;28;20053;-61
2022/12/28 04:21:52;;;;;;;11.68;6.05;;;6.70;99.90;;;;;;5051188;28;20493;-61
2022/12/28 04:24:19;;;;;;;8.73;6.15;;;6.70;99.90;;;;;;5055212;28;20095;-60
2022/12/28 04:26:45;;;;;;;9.73;6.18;;;6.70;99.90;;;;;;5054997;28;20041;-54
2022/12/28 04:29:12;;;;;;;9.73;6.10;;;6.70;99.90;;;;;;5052245;28;20052;-62
2022/12/28 04:31:39;;;;;;;12.07;6.75;;;6.80;99.90;;;;;;5050637;28;20049;-57
2022/12/28 04:34:06;;;;;;;7.93;5.47;;;6.80;99.90;;;;;;5052598;28;20537;-57
2022/12/28 04:36:33;;;;;;;9.27;6.35;;;6.80;99.90;;;;;;5049680;28;20491;-58
2022/12/28 04:39:01;;;;;;;7.25;5.85;;;6.80;99.90;;;;;;5050264;28;20264;-49
2022/12/28 04:41:27;;;;;;;11.40;7.05;;;6.80;99.90;;;;;;5053114;28;20103;-60
2022/12/28 04:43:54;;;;;;;9.68;6.72;;;6.90;99.90;;;;;;5055239;28;20087;-56
2022/12/28 04:46:22;;;;;;;9.45;6.60;;;6.90;99.90;;;;;;5044657;28;20088;-63
2022/12/28 04:48:49;;;;;;;9.95;6.53;;;6.90;99.90;;;;;;5055148;28;20049;-61
2022/12/28 04:51:17;;;;;;;10.85;6.38;;;6.90;99.90;;;;;;5051994;28;20076;-63
2022/12/28 04:53:44;;;;;;;7.65;6.38;;;6.90;99.90;;;;;;5052279;28;20501;-60
2022/12/28 04:56:12;;;;;;;9.15;6.55;;;6.90;99.90;;;;;;5050432;28;20076;-59
2022/12/28 04:58:39;;;;;;;10.10;6.43;;;7.00;99.90;;;;;;5053466;28;20127;-60
2022/12/28 05:01:07;;;;;;;8.45;5.50;;;7.00;99.90;;;;;;5048182;28;20099;-64
2022/12/28 05:03:34;;;;;;;9.98;6.68;;;7.00;99.90;;;;;;5056142;28;20094;-61
2022/12/28 05:06:01;;;;;;;9.68;6.45;;;7.00;99.90;;;;;;5049754;28;20076;-65
2022/12/28 05:08:28;;;;;;;8.18;6.70;;;7.00;99.90;;;;;;5051353;28;20103;-63
2022/12/28 05:10:56;;;;;;;12.10;7.70;;;7.10;99.90;;;;;;5052959;28;20417;-60
2022/12/28 05:13:24;;;;;;;9.10;6.93;;;7.10;99.90;;;;;;5053777;28;20485;-55
2022/12/28 05:15:51;;;;;;;9.60;6.55;;;7.10;99.90;;;;;;5053438;28;20076;-53
2022/12/28 05:18:18;;;;;;;11.20;7.97;;;7.20;99.90;;;;;;5054403;28;20470;-67
2022/12/28 05:20:45;;;;;;;13.18;7.47;;;7.20;99.90;;;;;;5055839;28;20078;-65
2022/12/28 05:23:11;;;;;;;8.65;6.75;;;7.20;99.90;;;;;;5057469;28;20084;-67
2022/12/28 05:25:38;;;;;;;10.75;7.90;;;7.20;99.90;;;;;;5051294;28;20041;-67
2022/12/28 05:28:05;;;;;;;11.23;7.78;;;7.20;99.90;;;;;;5052871;28;20460;-65
2022/12/28 05:30:33;;;;;;;13.25;8.18;;;7.20;99.90;;;;;;5052170;28;20049;-63
2022/12/28 05:33:00;;;;;;;9.98;8.32;;;7.30;99.90;;;;;;5052319;28;20053;-62
2022/12/28 05:35:27;;;;;;;12.73;8.48;;;7.30;99.90;;;;;;5050163;28;20049;-64
2022/12/28 05:37:53;;;;;;;13.40;9.00;;;7.30;99.90;;;;;;5051612;28;20116;-60
2022/12/28 05:40:20;;;;;;;11.48;8.88;;;7.30;99.90;;;;;;5053207;28;20457;-64
2022/12/28 05:42:47;;;;;;;11.35;8.98;;;7.40;99.90;;;;;;5046488;28;20102;-59
2022/12/28 05:45:14;;;;;;;12.30;8.93;;;7.40;99.90;;;;;;5048270;28;20091;-63
2022/12/28 05:47:42;;;;;;;13.05;9.68;;;7.40;99.90;;;;;;5050580;28;20077;-62
2022/12/28 05:50:09;;;;;;;14.95;10.27;;;7.40;99.90;;;;;;5050184;28;20088;-62
2022/12/28 05:52:36;;;;;;;13.45;9.60;;;7.50;99.90;;;;;;5049652;28;20106;-58
2022/12/28 05:55:03;;;;;;;17.25;10.18;;;7.50;99.90;;;;;;5050828;28;20084;-59
2022/12/28 05:57:29;;;;;;;14.02;10.35;;;7.50;99.90;;;;;;5053363;28;20522;-67
2022/12/28 05:59:56;;;;;;;16.65;11.30;;;7.50;99.90;;;;;;5052007;28;20052;-65
2022/12/28 06:02:26;;;;;;;13.48;10.75;;;7.60;99.90;;;;;;5049917;28;20076;-65
2022/12/28 06:04:54;;;;;;;13.00;10.00;;;7.60;99.90;;;;;;5056017;28;20056;-59
2022/12/28 06:07:21;;;;;;;16.30;10.65;;;7.60;99.90;;;;;;5053251;28;20091;-67
2022/12/28 06:09:48;;;;;;;13.95;10.82;;;7.70;99.90;;;;;;5053684;28;20080;-66
2022/12/28 06:12:14;;;;;;;16.45;11.60;;;7.70;99.90;;;;;;5053230;28;20041;-70
2022/12/28 06:14:41;;;;;;;13.35;10.05;;;7.70;99.90;;;;;;5055377;28;20087;-69
2022/12/28 06:17:08;;;;;;;15.13;10.77;;;7.70;99.90;;;;;;5054375;28;20041;-66
2022/12/28 06:19:35;;;;;;;15.07;11.07;;;7.80;99.90;;;;;;5054285;28;20041;-69
2022/12/28 06:22:03;;;;;;;14.32;10.77;;;7.70;99.90;;;;;;5056603;28;20053;-64
2022/12/28 06:24:30;;;;;;;13.77;9.98;;;7.80;99.90;;;;;;5055911;28;20076;-59
2022/12/28 06:26:56;;;;;;;15.18;11.35;;;7.90;99.90;;;;;;5046543;28;20485;-66
2022/12/28 06:29:23;;;;;;;17.85;11.00;;;7.90;99.90;;;;;;5053495;28;20065;-75
2022/12/28 06:31:52;;;;;;;14.65;10.95;;;7.90;99.90;;;;;;5055474;28;20049;-70
2022/12/28 06:34:19;;;;;;;12.30;9.77;;;7.90;99.90;;;;;;5051132;28;20480;-65
2022/12/28 06:36:46;;;;;;;15.02;11.13;;;7.90;99.90;;;;;;5053806;28;20074;-66
2022/12/28 06:39:14;;;;;;;13.70;10.63;;;7.90;99.90;;;;;;5050722;28;20554;-60
2022/12/28 06:41:41;;;;;;;16.33;11.23;;;8.00;99.90;;;;;;5051274;28;20472;-67
2022/12/28 06:44:08;;;;;;;14.02;10.27;;;8.00;99.90;;;;;;5048309;28;20143;-66
2022/12/28 06:46:35;;;;;;;13.63;10.38;;;8.00;99.90;;;;;;5053103;28;20049;-65
2022/12/28 06:49:02;;;;;;;11.75;9.65;;;8.00;99.90;;;;;;5051907;28;20056;-65
2022/12/28 06:51:29;;;;;;;13.13;10.18;;;8.10;99.90;;;;;;5044071;28;20045;-67
2022/12/28 06:53:56;;;;;;;13.32;10.45;;;8.10;99.90;;;;;;5042749;28;20099;-62
2022/12/28 06:56:25;;;;;;;14.48;10.65;;;8.10;99.90;;;;;;5041213;28;20128;-60
2022/12/28 06:58:52;;;;;;;16.17;10.38;;;8.10;99.90;;;;;;5041284;28;20469;-49
2022/12/28 07:01:20;;;;;;;12.50;10.23;;;8.10;99.90;;;;;;5047101;28;20049;-57
2022/12/28 07:03:47;;;;;;;12.68;10.80;;;8.20;99.90;;;;;;5051972;28;20091;-65
2022/12/28 07:06:15;;;;;;;13.55;10.77;;;8.10;99.90;;;;;;5049182;28;20497;-68
2022/12/28 07:08:42;;;;;;;12.95;9.73;;;8.10;99.90;;;;;;5050911;28;20086;-60
2022/12/28 07:11:10;;;;;;;18.00;11.13;;;8.20;99.90;;;;;;5051355;28;21563;-72
2022/12/28 07:13:38;;;;;;;13.57;11.20;;;8.20;99.90;;;;;;5054014;28;20531;-72
2022/12/28 07:16:06;;;;;;;15.05;12.05;;;8.20;99.90;;;;;;5047141;28;20124;-64
2022/12/28 07:18:33;;;;;;;14.57;11.77;;;8.20;99.90;;;;;;5037463;28;20461;-66
2022/12/28 07:21:00;;;;;;;15.35;11.98;;;8.30;99.90;;;;;;5049906;28;20090;-73
2022/12/28 07:23:29;;;;;;;14.60;11.40;;;8.30;99.90;;;;;;5057497;28;20049;-70
2022/12/28 07:25:56;;;;;;;16.00;11.65;;;8.30;99.90;;;;;;5056661;28;20447;-69
2022/12/28 07:28:23;;;;;;;17.25;11.48;;;8.30;99.90;;;;;;5052475;28;20056;-69
2022/12/28 07:30:51;;;;;;;16.50;12.65;;;8.30;99.90;;;;;;5055826;28;20041;-78
2022/12/28 07:33:18;;;;;;;16.98;11.85;;;8.40;99.90;;;;;;5059577;28;20060;-63
2022/12/28 07:35:44;;;;;;;14.35;12.30;;;8.40;99.90;;;;;;5056280;28;20081;-59
2022/12/28 07:38:11;;;;;;;18.25;12.43;;;8.30;99.90;;;;;;5052796;28;20053;-51
2022/12/28 07:40:38;;;;;;;17.55;12.43;;;8.40;99.90;;;;;;5053239;28;20053;-72
2022/12/28 07:43:05;;;;;;;17.05;11.75;;;8.40;99.90;;;;;;5057296;28;20053;-63
2022/12/28 07:45:32;;;;;;;19.20;12.60;;;8.40;99.90;;;;;;5053027;28;20115;-72
2022/12/28 07:48:00;;;;;;;19.83;12.68;;;8.40;99.90;;;;;;5052041;28;20052;-68
2022/12/28 07:50:27;;;;;;;14.27;12.00;;;8.40;99.90;;;;;;5051818;28;20092;-65
2022/12/28 07:52:54;;;;;;;16.08;12.15;;;8.50;99.90;;;;;;5047658;28;20404;-67
2022/12/28 07:55:23;;;;;;;20.95;12.35;;;8.50;99.90;;;;;;5051096;28;20045;-58
2022/12/28 07:57:51;;;;;;;16.17;12.60;;;8.50;99.90;;;;;;5047039;28;20059;-66
2022/12/28 08:00:18;;;;;;;17.98;12.68;;;8.50;99.90;;;;;;5052111;28;20539;-63
2022/12/28 08:02:45;;;;;;;18.55;12.95;;;8.50;99.90;;;;;;5055040;28;20089;-67
2022/12/28 08:05:13;;;;;;;16.30;12.23;;;8.50;99.90;;;;;;5051863;28;20045;-69
2022/12/28 08:07:40;;;;;;;15.40;12.10;;;8.50;99.90;;;;;;5050869;28;20485;-70
2022/12/28 08:10:08;;;;;;;17.55;11.95;;;8.50;99.90;;;;;;5054481;28;20138;-68
2022/12/28 08:12:34;;;;;;;20.38;11.98;;;8.50;99.90;;;;;;5049262;28;20049;-70
2022/12/28 08:15:01;;;;;;;18.98;12.07;;;8.60;99.90;;;;;;5057586;28;20061;-72
2022/12/28 08:17:28;;;;;;;14.20;11.35;;;8.60;99.90;;;;;;5059684;28;20085;-72
2022/12/28 08:19:56;;;;;;;15.88;10.95;;;8.60;99.90;;;;;;5049649;28;20449;-48
2022/12/28 08:22:24;;;;;;;16.00;12.07;;;8.60;99.90;;;;;;5059976;28;20099;-73
2022/12/28 08:24:51;;;;;;;11.00;9.25;;;8.60;99.90;;;;;;5060105;28;20061;-74
2022/12/28 08:27:18;;;;;;;11.45;10.13;;;8.60;99.90;;;;;;5060898;28;20094;-75
2022/12/28 08:29:45;;;;;;;13.18;9.70;;;8.60;99.90;;;;;;5061542;28;20074;-66
2022/12/28 08:32:12;;;;;;;11.38;10.20;;;8.60;99.90;;;;;;5059483;28;20049;-67
2022/12/28 08:34:38;;;;;;;10.35;8.50;;;8.70;99.90;;;;;;5055908;28;20397;-65
2022/12/28 08:37:05;;;;;;;13.10;9.80;;;8.70;99.90;;;;;;5054677;28;20084;-62
2022/12/28 08:39:33;;;;;;;11.50;8.95;;;8.70;99.90;;;;;;5049240;28;20049;-63
2022/12/28 08:42:00;;;;;;;12.30;9.15;;;8.70;99.90;;;;;;5045367;28;20052;-61
2022/12/28 08:44:27;;;;;;;11.35;9.50;;;8.70;99.90;;;;;;5054828;28;20562;-64
2022/12/28 08:46:54;;;;;;;11.35;8.98;;;8.70;99.90;;;;;;5056630;28;20076;-63
2022/12/28 08:49:21;;;;;;;12.82;10.05;;;8.70;99.90;;;;;;5056975;28;20417;-64
2022/12/28 08:51:48;;;;;;;12.15;9.77;;;8.70;99.90;;;;;;5056216;28;20064;-62
2022/12/28 08:54:15;;;;;;;12.90;10.02;;;8.70;99.90;;;;;;5059257;28;20443;-69
2022/12/28 08:56:43;;;;;;;14.68;9.80;;;8.80;99.90;;;;;;5058649;28;20084;-68
2022/12/28 08:59:12;;;;;;;10.32;9.18;;;8.70;99.90;;;;;;5052489;28;20071;-69
2022/12/28 09:01:39;;;;;;;12.38;8.85;;;8.80;99.90;;;;;;5056954;28;20046;-68
2022/12/28 09:04:07;;;;;;;11.88;8.98;;;8.80;99.90;;;;;;5059650;28;20052;-68
2022/12/28 09:06:35;;;;;;;15.82;9.60;;;8.80;99.90;;;;;;5056926;28;20485;-58
2022/12/28 09:09:02;;;;;;;13.25;8.85;;;8.80;99.90;;;;;;5056808;28;20091;-69
2022/12/28 09:11:29;;;;;;;18.48;9.40;;;8.80;99.90;;;;;;5058932;28;20103;-71
2022/12/28 09:13:57;;;;;;;16.20;8.55;;;8.80;99.90;;;;;;5056751;28;20084;-69
2022/12/28 09:16:26;;;;;;;11.50;8.00;;;8.90;99.90;;;;;;5042892;28;20092;-67
2022/12/28 09:18:53;;;;;;;11.50;7.40;;;8.90;99.90;;;;;;5057776;28;20088;-76
2022/12/28 09:21:21;;;;;;;10.70;7.43;;;8.90;99.90;;;;;;5055184;28;20081;-73
2022/12/28 09:23:48;;;;;;;11.10;7.65;;;8.90;99.90;;;;;;5057858;28;20068;-56
2022/12/28 09:26:15;;;;;;;10.02;7.25;;;8.90;99.90;;;;;;5051692;28;20140;-76
2022/12/28 09:28:44;;;;;;;14.48;7.57;;;9.00;99.90;;;;;;5058326;28;20076;-75
2022/12/28 09:31:12;;;;;;;11.23;7.57;;;9.00;99.90;;;;;;5060232;28;20056;-70
2022/12/28 09:36:23;;;;;;;10.15;7.45;;;9.00;99.90;;;;;;5058048;28;20057;-71
2022/12/28 09:38:50;;;;;;;9.45;6.72;;;9.00;99.90;;;;;;5057440;28;20053;-73
2022/12/28 09:41:21;;;;;;;10.85;7.82;;;9.10;99.90;;;;;;5060385;28;20092;-68
2022/12/28 09:43:48;;;;;;;11.27;7.70;;;9.10;99.90;;;;;;5058560;28;20057;-70
2022/12/28 09:46:17;;;;;;;9.75;7.55;;;9.10;99.90;;;;;;5058576;28;20061;-73
2022/12/28 09:48:53;;;;;;;9.60;7.35;;;9.10;99.90;;;;;;5059005;28;20447;-71
2022/12/28 09:51:20;;;;;;;9.35;7.63;;;9.10;99.90;;;;;;5048376;28;20453;-70
2022/12/28 09:53:47;;;;;;;13.50;7.93;;;9.10;99.90;;;;;;5061124;28;20417;-69
2022/12/28 09:56:22;;;;;;;13.75;8.88;;;9.10;99.90;;;;;;5059703;28;20045;-73
2022/12/28 09:58:49;;;;;;;12.13;8.35;;;9.20;99.90;;;;;;5059111;28;20057;-69
2022/12/28 10:01:17;;;;;;;10.98;7.50;;;9.10;99.90;;;;;;5041115;28;20139;-73
2022/12/28 10:03:44;;;;;;;12.45;7.95;;;9.20;99.90;;;;;;5038714;28;20084;-70
2022/12/28 10:06:12;;;;;;;12.60;8.43;;;9.20;99.90;;;;;;5053164;28;20049;-71
2022/12/28 10:08:41;;;;;;;8.93;7.60;;;9.20;99.90;;;;;;5058969;28;20065;-70
2022/12/28 10:11:08;;;;;;;9.77;8.18;;;9.20;99.90;;;;;;5058084;28;20459;-74
2022/12/28 10:13:36;;;;;;;13.23;7.95;;;9.20;99.90;;;;;;5056930;28;20053;-77
2022/12/28 10:16:04;;;;;;;8.57;7.68;;;9.20;99.90;;;;;;5058361;28;20076;-75
2022/12/28 10:18:34;;;;;;;10.50;7.93;;;9.20;99.90;;;;;;5059423;28;20132;-76
2022/12/28 10:21:00;;;;;;;10.35;8.00;;;9.20;99.90;;;;;;5060645;28;20060;-77
2022/12/28 10:23:29;;;;;;;8.88;7.57;;;9.30;99.90;;;;;;5057703;28;20505;-65
2022/12/28 10:25:56;;;;;;;10.60;8.27;;;9.20;99.90;;;;;;5059364;28;20053;-77
2022/12/28 10:28:25;;;;;;;10.95;7.80;;;9.20;99.90;;;;;;5058842;28;20480;-72
2022/12/28 10:31:03;;;;;;;11.68;8.40;;;9.20;99.90;;;;;;5059183;28;20053;-71
2022/12/28 10:33:30;;;;;;;10.85;8.63;;;9.20;99.90;;;;;;5059561;28;20076;-60
2022/12/28 10:35:58;;;;;;;12.98;8.80;;;9.30;99.90;;;;;;5059912;28;20492;-71
2022/12/28 10:38:27;;;;;;;12.18;8.68;;;9.20;99.90;;;;;;5057941;28;20045;-63
2022/12/28 10:41:00;;;;;;;10.35;9.18;;;9.20;99.90;;;;;;5059244;28;20049;-69
2022/12/28 10:43:28;;;;;;;10.02;8.65;;;9.30;99.90;;;;;;5058555;28;20059;-75
2022/12/28 10:45:56;;;;;;;13.30;8.93;;;9.30;99.90;;;;;;5059689;28;20143;-77
2022/12/28 10:48:24;;;;;;;11.07;8.98;;;9.20;99.90;;;;;;5049976;28;20408;-67
2022/12/28 10:50:52;;;;;;;10.07;7.97;;;9.30;99.90;;;;;;5050232;28;20449;-67
2022/12/28 10:53:25;;;;;;;8.73;7.57;;;9.30;99.90;;;;;;5046452;28;20496;-61
2022/12/28 10:56:01;;;;;;;9.07;7.60;;;9.30;99.90;;;;;;5044889;28;20134;-62
2022/12/28 10:58:28;;;;;;;8.93;6.68;;;9.30;99.90;;;;;;5044775;28;20091;-66
2022/12/28 11:00:55;;;;;;;6.78;6.07;;;9.30;99.90;;;;;;5041816;28;20089;-67
2022/12/28 11:03:24;;;;;;;9.02;6.60;;;9.30;99.90;;;;;;5041669;28;20107;-67
2022/12/28 11:06:08;;;;;;;7.97;6.38;;;9.30;99.90;;;;;;5045949;28;20084;-61
2022/12/28 11:08:36;;;;;;;7.45;6.22;;;9.30;99.90;;;;;;5042696;28;20048;-63
2022/12/28 11:11:03;;;;;;;7.53;6.47;;;9.30;99.90;;;;;;5050535;28;20045;-53
2022/12/28 11:13:29;;;;;;;6.50;5.55;;;9.30;99.90;;;;;;5045046;28;20053;-61
2022/12/28 11:15:56;;;;;;;6.75;5.40;;;9.30;99.90;;;;;;5043738;28;20053;-60
2022/12/28 11:18:23;;;;;;;5.80;5.20;;;9.30;99.90;;;;;;5045941;28;20132;-61
2022/12/28 11:20:50;;;;;;;5.22;4.72;;;9.30;99.90;;;;;;5050500;28;20052;-67
2022/12/28 11:23:19;;;;;;;8.63;6.05;;;9.30;99.90;;;;;;5048801;28;20041;-68
2022/12/28 11:25:47;;;;;;;6.95;5.30;;;9.40;99.90;;;;;;5050510;28;20132;-58
2022/12/28 11:28:16;;;;;;;10.15;6.13;;;9.30;99.90;;;;;;5046738;28;20123;-62
2022/12/28 11:30:43;;;;;;;5.90;5.18;;;9.30;99.90;;;;;;5051539;28;20114;-64
2022/12/28 11:33:23;;;;;;;5.95;5.35;;;9.30;99.90;;;;;;5044247;28;20138;-61
2022/12/28 11:35:49;;;;;;;6.70;5.10;;;9.30;99.90;;;;;;5050278;28;20092;-65
2022/12/28 11:38:37;;;;;;;6.95;5.07;;;9.30;99.90;;;;;;5048303;28;20071;-63
2022/12/28 11:41:05;;;;;;;6.25;5.38;;;9.30;99.90;;;;;;5053963;28;20044;-68
2022/12/28 11:43:40;;;;;;;6.00;5.25;;;9.30;99.90;;;;;;5057013;28;20604;-71
2022/12/28 11:46:08;;;;;;;8.02;5.15;;;9.30;99.90;;;;;;5053272;28;20073;-63
2022/12/28 11:48:48;;;;;;;5.55;5.00;;;9.30;99.90;;;;;;5058150;28;20045;-53
2022/12/28 11:51:15;;;;;;;7.82;5.40;;;9.30;99.90;;;;;;5060406;28;20095;-64
2022/12/28 11:53:50;;;;;;;7.00;5.30;;;9.30;99.90;;;;;;5058688;28;20049;-71
2022/12/28 11:56:19;;;;;;;5.55;4.60;;;9.30;99.90;;;;;;5059479;28;20461;-75
2022/12/28 11:58:47;;;;;;;5.82;5.10;;;9.30;99.90;;;;;;5058739;28;20072;-71
2022/12/28 12:01:43;;;;;;;7.85;5.28;;;9.40;99.90;;;;;;5054766;28;20111;-63
2022/12/28 12:04:26;;;;;;;6.65;4.97;;;9.30;99.90;;;;;;5049586;28;20079;-70
2022/12/28 12:07:45;;;;;;;6.57;4.72;;;9.40;99.90;;;;;;5056629;28;20041;-63
2022/12/28 12:10:27;;;;;;;7.32;5.18;;;9.30;99.90;;;;;;5047389;28;20077;-68
2022/12/28 12:12:55;;;;;;;5.50;4.95;;;9.30;99.90;;;;;;5056396;28;20045;-52
2022/12/28 12:15:38;;;;;;;6.35;5.03;;;9.30;99.90;;;;;;5049115;28;20116;-53
2022/12/28 12:18:06;;;;;;;6.13;4.72;;;9.40;99.90;;;;;;5056176;28;20102;-64
2022/12/28 12:20:57;;;;;;;5.60;5.05;;;9.40;99.90;;;;;;5055014;28;20042;-76
2022/12/28 12:23:32;;;;;;;7.15;5.07;;;9.40;99.90;;;;;;5060292;28;20095;-69
2022/12/28 12:26:00;;;;;;;5.25;4.75;;;9.30;99.90;;;;;;5062354;28;20087;-60
2022/12/28 12:28:37;;;;;;;7.53;5.68;;;9.30;99.90;;;;;;5061297;28;20080;-75
2022/12/28 12:31:06;;;;;;;6.32;4.95;;;9.30;99.90;;;;;;5059545;28;20049;-66
2022/12/28 12:33:35;;;;;;;5.63;4.90;;;9.30;99.90;;;;;;5055762;28;20084;-64
2022/12/28 12:36:05;;;;;;;6.05;5.20;;;9.30;99.90;;;;;;5051881;28;20779;-61
2022/12/28 12:38:40;;;;;;;6.80;4.82;;;9.30;99.90;;;;;;5053974;28;20136;-61
2022/12/28 12:41:18;;;;;;;5.72;4.20;;;9.30;99.90;;;;;;5049695;28;20046;-62
2022/12/28 12:43:51;;;;;;;6.60;4.45;;;9.30;99.90;;;;;;5054055;28;20081;-62
2022/12/28 12:46:51;;;;;;;4.20;3.80;;;9.30;99.90;;;;;;5053627;28;20245;-64
2022/12/28 12:49:28;;;;;;;5.28;3.78;;;9.30;99.90;;;;;;5034921;28;20143;-61
2022/12/28 12:51:58;;;;;;;4.55;3.67;;;9.30;99.90;;;;;;5044769;28;20057;-64
2022/12/28 12:54:30;;;;;;;4.35;3.50;;;9.30;99.90;;;;;;5053614;28;20088;-47
2022/12/28 12:56:58;;;;;;;4.88;3.47;;;9.40;99.90;;;;;;5051815;28;20142;-73
2022/12/28 12:59:36;;;;;;;4.68;3.80;;;9.30;99.90;;;;;;5048675;28;20045;-66
2022/12/28 13:02:13;;;;;;;5.00;3.00;;;9.30;99.90;;;;;;5051516;28;20052;-70
2022/12/28 13:04:41;;;;;;;4.10;3.22;;;9.30;99.90;;;;;;5060661;28;20064;-73
2022/12/28 13:07:16;;;;;;;2.85;2.65;;;9.30;99.90;;;;;;5056840;28;20048;-68
2022/12/28 13:09:42;;;;;;;4.88;3.40;;;9.30;99.90;;;;;;5057139;28;21056;-67
2022/12/28 13:12:10;;;;;;;7.05;3.45;;;9.30;99.90;;;;;;5052998;28;20060;-65
2022/12/28 13:14:38;;;;;;;3.53;3.05;;;9.30;99.90;;;;;;5053287;28;20064;-67
2022/12/28 13:17:05;;;;;;;3.78;3.00;;;9.30;99.90;;;;;;5049258;28;20044;-65
2022/12/28 13:19:32;;;;;;;4.03;2.50;;;9.30;99.90;;;;;;5045976;28;20407;-64
2022/12/28 13:21:58;;;;;;;5.07;3.10;;;9.30;99.90;;;;;;5050473;28;20053;-61
2022/12/28 13:24:26;;;;;;;5.45;3.17;;;9.30;99.90;;;;;;5060962;28;20045;-61
2022/12/28 13:26:53;;;;;;;3.88;2.60;;;9.30;99.90;;;;;;5062026;28;20057;-66
2022/12/28 13:29:21;;;;;;;3.83;2.75;;;9.30;99.90;;;;;;5049896;28;20049;-66
2022/12/28 13:31:52;;;;;;;5.03;2.75;;;9.30;99.90;;;;;;5050809;28;20076;-65